Nearby METAR Reports

 

KMSL - Muscle Shoals, Alabama, USA
Updated: Sun, 04-Dec-2022 7:53pm CST
Overcast
Overcast
 Wind from calm
Wind: Calm
Temperature: 48°F , 9°C
Dew Point: 41°F , 5°C
Humidity: 76%
Barometer: 30.17 inHg , 1021.7 hPa
Clouds: Overcast
Visibility: 10 miles , 16 km
Cloud details: Overcast 6500 ft
2022/12/05 01:53 KMSL 050153Z AUTO 00000KT 10SM OVC065 09/05 A3017 RMK AO2 SLP217 T00890050
K1M4 - Haleyville, Alabama, USA
Updated: Sun, 04-Dec-2022 7:56pm CST
Overcast
Overcast
 Wind from ENE
Wind: ENE 5 mph , 7 km/h
Temperature: 46°F , 8°C
Wind Chill: 44°F , 7°C
Dew Point: 43°F , 6°C
Humidity: 87%
Barometer: 30.18 inHg , 1022 hPa
Clouds: Overcast
Visibility: 10 miles , 16 km
Cloud details: Overcast 6500 ft
2022/12/05 01:56 K1M4 050156Z AUTO 06004KT 10SM OVC065 08/06 A3018 RMK AO2 SLP218 T00780056
 
K2M2 - Lawrenceburg, Tennessee, USA
Updated: Sun, 04-Dec-2022 8:15pm CST
Overcast
Overcast
 Wind from calm
Wind: Calm
Temperature: 41°F , 5°C
Dew Point: 34°F , 1°C
Humidity: 76%
Barometer: 30.16 inHg , 1021.3 hPa
Clouds: Overcast
Visibility: 10 miles , 16 km
Cloud details: Partly cloudy 4100 ft
Mostly cloudy 4800 ft
Overcast 6500 ft
2022/12/05 02:15 K2M2 050215Z AUTO 00000KT 10SM SCT041 BKN048 OVC065 05/01 A3016 RMK A01
KGZS - Pulaski, Tennessee, USA
Updated: Sun, 04-Dec-2022 8:15pm CST
Overcast
Overcast
 Wind from calm
Wind: Calm
Temperature: 43°F , 6°C
Dew Point: 37°F , 3°C
Humidity: 81%
Barometer: 30.17 inHg , 1021.7 hPa
Clouds: Overcast
Visibility: 10 miles , 16 km
Cloud details: Partly cloudy 3900 ft
Mostly cloudy 6500 ft
Overcast 8000 ft
2022/12/05 02:15 KGZS 050215Z AUTO 00000KT 10SM SCT039 BKN065 OVC080 06/03 A3017 RMK A01
 
KSNH - Savannah, Tennessee, USA
Updated: Sun, 04-Dec-2022 7:45pm CST
Overcast
Overcast
 Wind from ENE
Wind: ENE 5 mph , 7 km/h
Temperature: 43°F , 6°C
Wind Chill: 40°F , 4°C
Dew Point: 39°F , 4°C
Humidity: 87%
Barometer: 30.17 inHg , 1021.7 hPa
Clouds: Overcast
Visibility: 9 miles , 14 km
Cloud details: Overcast 6000 ft
2022/12/05 01:45 KSNH 050145Z AUTO 06004KT 9SM OVC060 06/04 A3017 RMK A01
KDCU - Decatur, Alabama, USA
Updated: Sun, 04-Dec-2022 7:53pm CST
Overcast
Overcast
 Wind from calm
Wind: Calm
Temperature: 48°F , 9°C
Dew Point: 39°F , 4°C
Humidity: 71%
Barometer: 30.17 inHg , 1021.7 hPa
Clouds: Overcast
Visibility: 10 miles , 16 km
Cloud details: Few Clouds 5000 ft
Overcast 7000 ft
2022/12/05 01:53 KDCU 050153Z AUTO 00000KT 10SM FEW050 OVC070 09/04 A3017 RMK AO2 SLP219 T00890039
 
KHSV - Huntsville, Alabama, USA
Updated: Sun, 04-Dec-2022 7:53pm CST
Overcast
Overcast
 Wind from SSW
Wind: SSW 3 mph , 6 km/h
Temperature: 48°F , 9°C
Dew Point: 43°F , 6°C
Humidity: 82%
Barometer: 30.17 inHg , 1021.7 hPa
Clouds: Overcast
Visibility: 10 miles , 16 km
Cloud details: Partly cloudy 5000 ft
Overcast 7000 ft
2022/12/05 01:53 KHSV 050153Z 20003KT 10SM SCT050 OVC070 09/06 A3017 RMK AO2 SLP216 T00890056
KTUP - Tupelo, Mississippi, USA
Updated: Sun, 04-Dec-2022 7:53pm CST
Overcast
Overcast
 Wind from calm
Wind: Calm
Temperature: 46°F , 8°C
Dew Point: 43°F , 6°C
Humidity: 87%
Barometer: 30.18 inHg , 1022 hPa
Clouds: Overcast
Visibility: 10 miles , 16 km
Cloud details: Overcast 5500 ft
2022/12/05 01:53 KTUP 050153Z 00000KT 10SM OVC055 08/06 A3018 RMK AO2 RAB08E35 SLP220 P0001 T00830061 $
 
KMRC - Columbia, Tennessee, USA
Updated: Sun, 04-Dec-2022 8:10pm CST
Overcast
Overcast
 Wind from calm
Wind: Calm
Temperature: 39°F , 4°C
Dew Point: 39°F , 4°C
Humidity: 100%
Barometer: 30.15 inHg , 1021 hPa
Clouds: Overcast
Visibility: 10 miles , 16 km
Cloud details: Few Clouds 5500 ft
Overcast 7500 ft
2022/12/05 02:10 KMRC 050210Z AUTO 00000KT 10SM FEW055 OVC075 04/04 A3015 RMK A01
KMKL - Jackson, Tennessee, USA
Updated: Sun, 04-Dec-2022 7:53pm CST
Overcast
Overcast
 Wind from calm
Wind: Calm
Temperature: 41°F , 5°C
Dew Point: 36°F , 2°C
Humidity: 81%
Barometer: 30.17 inHg , 1021.7 hPa
Clouds: Overcast
Visibility: 10 miles , 16 km
Cloud details: Mostly cloudy 6000 ft
Overcast 8000 ft
2022/12/05 01:53 KMKL 050153Z AUTO 00000KT 10SM BKN060 OVC080 05/02 A3017 RMK AO2 SLP218 T00500022
 
KMEM - Memphis, Tennessee, USA
Updated: Sun, 04-Dec-2022 7:54pm CST
Overcast
Overcast
 Wind from calm
Wind: Calm
Temperature: 43°F , 6°C
Dew Point: 34°F , 1°C
Humidity: 71%
Barometer: 30.18 inHg , 1022 hPa
Clouds: Overcast
Visibility: 10 miles , 16 km
Cloud details: Overcast 5000 ft
2022/12/05 01:54 KMEM 050154Z 00000KT 10SM OVC050 06/01 A3018 RMK AO2 SLP221 T00610006
KPVE - Parsons, Tennessee, USA
Updated: Wed, 12-Oct-2022 3:50pm CDT
NOT Current
Mist, Overcast
Mist, Overcast
 Wind from SW
Wind: SW 16 mph , 26 km/h
Temperature: 64°F , 18°C
Dew Point: 63°F , 17°C
Humidity: 94%
Barometer: 29.90 inHg , 1012.5 hPa
Summary: Mist
Clouds: Overcast
Visibility: 5 miles , 8 km
Cloud details: Few Clouds 400 ft
Partly cloudy 2800 ft
Overcast 4900 ft
2022/10/12 20:50 KPVE 122050Z AUTO 23014KT 5SM BR FEW004 SCT028 OVC049 18/17 A2990 RMK A01